Deatsville, Alabama
Current Conditions -  °F | °C
As of 1:55 PM on Saturday 25 Oct 2014 (Local Time) from K1A9 Reporting Station
Clear Clear  
Wind Chill: 76°   Ceiling: Unl
Heat Index: 76°   Visibility: 10mi
Dew Point: 47°   Wind: 10mph
Humidity: 35%   Direction: 310°NW
Pressure: 30.05"   Gusts: NA
Location:  32.61°N, 86.4°W
Report Text: K1A9 251855Z AUTO 31009KT 10SM CLR 24/08 A3005 RMK AO2 T02440081
Loading
Personal Weather Stations






























Interactive Weather Map
Tropical Storm Tracking
New forecast layout! Learn more

10-Day Weather Forecast

Advertisements
Track Severe Weather on mobile